Terminal Aerodrome Forecast
Issued by NWS

Home | Current Version | Previous Version | Graphics & Text | Print | Product List | Glossary On
Versions: 1 2 3 4 5 6 7 8 9 10 11 12 13 14 15 16 17
974
FTUS43 KBIS 070535
TAFJMS
TAF
KJMS 070535Z 0706/0806 30026G36KT 1 1/2SM -SN BLSN SCT025 OVC035
      TEMPO 0706/0710 3/4SM -SN BLSN BKN025 OVC035
     FM071000 30025G35KT 2SM -SN BLSN OVC035
     FM072100 31025G33KT 4SM -SN BLSN OVC015
     FM080000 31020G30KT 5SM -SN OVC008=

USA.gov is the U.S. government's official web portal to all federal, state and local government web resources and services.